Time;durP1;ratioP1;P1;durP2;ratioP2;P2;SDS_P1;SDS_P2;PMS_P1;PMS_P2;Temp;Humidity;BMP_temperature;BMP_pressure;BME280_temperature;BME280_humidity;BME280_pressure;Samples;Min_cycle;Max_cycle;Signal;HPM_P1;HPM_P2
2022/01/12 00:01:10;;;;;;;6.07;3.27;;;3.30;99.90;;;;;;5026841;28;20987;-69
2022/01/12 00:03:37;;;;;;;6.33;2.30;;;3.20;99.90;;;;;;5023500;28;20550;-71
2022/01/12 00:06:06;;;;;;;5.70;2.83;;;3.30;99.90;;;;;;5029870;28;21010;-72
2022/01/12 00:08:34;;;;;;;3.93;1.83;;;3.30;99.90;;;;;;5026048;28;20430;-71
2022/01/12 00:11:03;;;;;;;2.03;1.60;;;3.20;99.90;;;;;;5026557;28;20555;-72
2022/01/12 00:13:30;;;;;;;2.63;1.80;;;3.10;99.90;;;;;;5023891;28;20569;-73
2022/01/12 00:15:57;;;;;;;2.13;1.80;;;3.10;99.90;;;;;;5029816;28;20501;-71
2022/01/12 00:18:25;;;;;;;4.03;2.13;;;3.10;99.90;;;;;;5025019;28;20573;-69
2022/01/12 00:20:54;;;;;;;6.60;3.13;;;3.10;99.90;;;;;;5032501;28;20893;-72
2022/01/12 00:23:22;;;;;;;3.30;2.33;;;3.10;99.90;;;;;;5034053;28;20535;-71
2022/01/12 00:26:06;;;;;;;1.90;1.70;;;3.10;99.90;;;;;;5027984;28;20458;-71
2022/01/12 00:34:05;;;;;;;5.37;2.10;;;3.10;99.90;;;;;;5024320;28;20865;-71
2022/01/12 00:36:33;;;;;;;3.47;3.17;;;3.20;99.90;;;;;;5038348;28;20442;-74
2022/01/12 00:39:02;;;;;;;3.30;2.20;;;3.10;99.90;;;;;;5036592;28;20463;-71
2022/01/12 00:41:29;;;;;;;4.03;1.70;;;3.20;99.90;;;;;;5010627;28;20457;-72
2022/01/12 00:44:00;;;;;;;3.10;2.30;;;3.20;99.90;;;;;;5035246;28;20537;-72
2022/01/12 00:46:28;;;;;;;5.13;2.50;;;3.30;99.90;;;;;;5032466;28;20468;-73
2022/01/12 00:48:57;;;;;;;3.53;2.40;;;3.30;99.90;;;;;;5033129;28;20469;-70
2022/01/12 00:51:26;;;;;;;4.67;3.03;;;3.40;99.90;;;;;;5030984;28;20566;-71
2022/01/12 00:53:54;;;;;;;3.83;1.70;;;3.40;99.90;;;;;;5033752;28;20944;-70
2022/01/12 00:56:23;;;;;;;8.60;3.00;;;3.50;99.90;;;;;;5032228;28;20872;-70
2022/01/12 00:58:51;;;;;;;3.20;2.57;;;3.50;99.90;;;;;;5017730;28;20459;-70
2022/01/12 01:01:19;;;;;;;1.83;1.33;;;3.50;99.90;;;;;;5011661;28;20521;-69
2022/01/12 01:03:47;;;;;;;8.03;2.80;;;3.50;99.90;;;;;;5012066;28;21119;-71
2022/01/12 01:06:14;;;;;;;6.00;2.63;;;3.50;99.90;;;;;;5013860;28;20841;-72
2022/01/12 01:08:43;;;;;;;5.03;2.20;;;3.60;99.90;;;;;;5018753;28;20452;-70
2022/01/12 01:11:11;;;;;;;5.70;2.90;;;3.80;99.90;;;;;;5012707;28;20497;-71
2022/01/12 01:13:46;;;;;;;3.20;1.90;;;3.80;99.90;;;;;;5024587;28;20462;-72
2022/01/12 01:16:20;;;;;;;4.10;2.13;;;3.80;99.90;;;;;;5027525;28;20423;-70
2022/01/12 01:27:15;;;;;;;3.50;2.17;;;4.10;99.90;;;;;;5002481;28;20470;-73
2022/01/12 01:29:44;;;;;;;2.37;1.67;;;4.20;99.90;;;;;;5019514;28;20865;-71
2022/01/12 01:32:12;;;;;;;2.70;1.80;;;4.30;99.90;;;;;;5031855;28;20449;-71
2022/01/12 01:34:44;;;;;;;2.17;1.97;;;4.30;99.90;;;;;;5026429;28;20491;-71
2022/01/12 01:37:12;;;;;;;1.53;1.40;;;4.20;99.90;;;;;;5024784;28;20457;-71
2022/01/12 01:39:38;;;;;;;2.90;1.77;;;4.40;99.90;;;;;;5031274;28;20429;-71
2022/01/12 01:42:14;;;;;;;1.77;1.50;;;4.50;99.90;;;;;;5033588;28;20477;-71
2022/01/12 01:55:41;;;;;;;1.67;1.20;;;4.70;99.90;;;;;;5029387;28;20465;-69
2022/01/12 01:58:08;;;;;;;3.37;2.10;;;4.70;99.90;;;;;;5036940;28;20487;-71
2022/01/12 02:00:37;;;;;;;2.20;1.50;;;4.80;99.90;;;;;;5028931;28;22077;-71
2022/01/12 02:03:04;;;;;;;2.70;2.03;;;4.90;99.90;;;;;;5025544;28;20544;-73
2022/01/12 02:05:32;;;;;;;7.63;2.50;;;4.70;99.90;;;;;;5032756;28;20467;-72
2022/01/12 02:07:59;;;;;;;3.77;2.00;;;4.60;99.90;;;;;;5023972;28;20434;-73
2022/01/12 02:10:26;;;;;;;3.80;2.17;;;4.50;99.90;;;;;;5036019;28;20513;-71
2022/01/12 02:12:53;;;;;;;5.43;2.83;;;4.50;99.90;;;;;;5035435;28;20483;-71
2022/01/12 02:15:23;;;;;;;2.90;1.90;;;4.40;99.90;;;;;;5034314;28;20460;-70
2022/01/12 02:18:06;;;;;;;1.60;1.50;;;4.40;99.90;;;;;;5033562;28;20449;-70
2022/01/12 02:39:48;;;;;;;1.97;1.50;;;3.90;99.90;;;;;;5032880;28;22349;-70
2022/01/12 02:40:09;;;;;;;4.33;2.40;;;3.90;99.90;;;;;;5038862;28;20436;-71
2022/01/12 02:42:41;;;;;;;6.80;2.20;;;3.90;99.90;;;;;;5033866;28;20593;-74
2022/01/12 02:50:56;;;;;;;2.50;1.57;;;3.90;99.90;;;;;;4970524;28;20736;-70
2022/01/12 02:53:41;;;;;;;4.90;2.70;;;3.80;99.90;;;;;;5024745;28;20486;-71
2022/01/12 02:56:11;;;;;;;4.57;1.80;;;3.80;99.90;;;;;;5031713;28;20418;-72
2022/01/12 02:58:39;;;;;;;3.67;1.97;;;3.80;99.90;;;;;;5026753;28;20972;-74
2022/01/12 03:04:02;;;;;;;2.50;1.93;;;3.80;99.90;;;;;;5005702;28;20942;-72
2022/01/12 03:06:33;;;;;;;2.30;1.70;;;4.00;99.90;;;;;;5034170;28;20487;-70
2022/01/12 03:09:04;;;;;;;3.90;2.17;;;4.00;99.90;;;;;;5023304;28;20428;-71
2022/01/12 03:11:32;;;;;;;5.70;2.20;;;4.00;99.90;;;;;;5030763;28;20443;-71
2022/01/12 03:14:00;;;;;;;9.80;3.07;;;4.00;99.90;;;;;;5033295;28;20430;-72
2022/01/12 03:16:28;;;;;;;3.40;2.03;;;4.00;99.90;;;;;;5027858;28;20483;-71
2022/01/12 03:18:58;;;;;;;2.33;2.13;;;4.00;99.90;;;;;;5027994;28;20480;-74
2022/01/12 03:21:28;;;;;;;2.27;1.57;;;4.00;99.90;;;;;;5028375;28;20527;-70
2022/01/12 03:23:56;;;;;;;4.97;1.87;;;4.00;99.90;;;;;;5022713;28;20561;-71
2022/01/12 03:26:28;;;;;;;2.27;1.73;;;4.10;99.90;;;;;;5034166;28;20483;-71
2022/01/12 03:28:57;;;;;;;4.23;3.13;;;4.10;99.90;;;;;;5037062;28;20410;-70
2022/01/12 03:31:27;;;;;;;7.70;2.40;;;4.20;99.90;;;;;;5032651;28;20430;-70
2022/01/12 03:33:59;;;;;;;2.07;1.77;;;4.10;99.90;;;;;;5024627;28;20484;-71
2022/01/12 03:36:41;;;;;;;2.13;1.53;;;4.10;99.90;;;;;;5032520;28;20903;-71
2022/01/12 03:39:11;;;;;;;5.47;2.20;;;4.10;99.90;;;;;;5030377;28;20808;-70
2022/01/12 03:41:39;;;;;;;1.73;1.40;;;4.20;99.90;;;;;;5032572;28;21233;-72
2022/01/12 03:44:10;;;;;;;3.90;1.90;;;4.20;99.90;;;;;;5020247;28;20576;-72
2022/01/12 03:46:39;;;;;;;2.50;1.87;;;4.20;99.90;;;;;;5025572;28;20595;-74
2022/01/12 03:49:06;;;;;;;6.03;2.30;;;4.50;99.90;;;;;;5030010;28;20471;-71
2022/01/12 03:51:33;;;;;;;3.23;1.70;;;4.50;99.90;;;;;;5025104;28;20551;-73
2022/01/12 03:54:00;;;;;;;2.30;1.70;;;4.40;99.90;;;;;;5031388;28;20446;-72
2022/01/12 03:56:27;;;;;;;2.43;1.63;;;4.50;99.90;;;;;;5026155;28;20483;-71
2022/01/12 03:58:55;;;;;;;2.50;2.13;;;4.70;99.90;;;;;;5036387;28;20434;-71
2022/01/12 04:01:24;;;;;;;1.80;1.60;;;4.50;99.90;;;;;;5019862;28;20482;-70
2022/01/12 04:03:59;;;;;;;1.60;1.50;;;4.40;99.90;;;;;;5024131;28;20593;-70
2022/01/12 04:09:11;;;;;;;3.30;1.70;;;4.40;99.90;;;;;;5003556;28;20996;-70
2022/01/12 04:11:39;;;;;;;2.03;1.40;;;4.40;99.90;;;;;;5007770;28;21168;-72
2022/01/12 04:14:06;;;;;;;1.80;1.50;;;4.60;99.90;;;;;;5008271;28;20472;-70
2022/01/12 04:16:36;;;;;;;1.93;1.67;;;4.50;99.90;;;;;;5018554;28;20434;-72
2022/01/12 04:19:06;;;;;;;2.67;2.47;;;4.50;99.90;;;;;;5016931;28;20463;-70
2022/01/12 04:21:40;;;;;;;2.53;1.63;;;4.50;99.90;;;;;;5016407;28;20491;-71
2022/01/12 04:24:08;;;;;;;2.20;2.00;;;4.50;99.90;;;;;;5015022;28;20438;-72
2022/01/12 04:26:35;;;;;;;3.10;2.20;;;4.50;99.90;;;;;;5025278;28;20555;-71
2022/01/12 04:29:02;;;;;;;1.93;1.80;;;4.40;99.90;;;;;;5013849;28;20446;-71
2022/01/12 04:31:29;;;;;;;2.00;1.77;;;4.60;99.90;;;;;;5017468;28;20497;-71
2022/01/12 04:33:58;;;;;;;1.30;1.20;;;4.80;99.90;;;;;;5021443;28;20457;-70
2022/01/12 04:36:25;;;;;;;4.03;2.30;;;4.80;99.90;;;;;;5021997;28;20888;-70
2022/01/12 04:38:52;;;;;;;2.77;2.17;;;4.70;99.90;;;;;;5019688;28;20991;-71
2022/01/12 04:41:19;;;;;;;4.27;2.47;;;4.80;99.90;;;;;;5011897;28;20849;-70
2022/01/12 04:43:48;;;;;;;2.53;2.33;;;4.80;99.90;;;;;;5020937;28;20434;-71
2022/01/12 04:46:31;;;;;;;3.67;2.03;;;4.70;99.90;;;;;;5032941;28;20483;-69
2022/01/12 04:49:25;;;;;;;3.63;2.27;;;4.70;99.90;;;;;;5012853;28;20436;-68
2022/01/12 04:51:52;;;;;;;2.90;2.20;;;4.70;99.90;;;;;;5017357;28;20476;-70
2022/01/12 04:54:19;;;;;;;9.67;2.90;;;4.70;99.90;;;;;;5014109;28;20504;-70
2022/01/12 04:56:47;;;;;;;2.40;2.10;;;4.70;99.90;;;;;;5025077;28;20430;-72
2022/01/12 04:59:14;;;;;;;3.43;1.90;;;4.70;99.90;;;;;;5017353;28;20459;-70
2022/01/12 05:01:49;;;;;;;4.53;2.90;;;4.80;99.90;;;;;;5019654;28;21010;-72
2022/01/12 05:07:24;;;;;;;3.47;3.17;;;5.00;99.90;;;;;;5023715;28;20463;-71
2022/01/12 05:12:52;;;;;;;2.20;2.00;;;5.00;99.90;;;;;;4986232;28;20454;-70
2022/01/12 05:15:26;;;;;;;2.03;1.60;;;5.10;99.90;;;;;;5031436;28;21031;-73
2022/01/12 05:17:53;;;;;;;5.70;4.10;;;5.10;99.90;;;;;;5029652;28;20441;-70
2022/01/12 05:20:23;;;;;;;5.50;3.50;;;5.00;99.90;;;;;;5025359;28;20874;-72
2022/01/12 05:22:50;;;;;;;15.10;3.40;;;5.00;99.90;;;;;;5012092;28;20454;-72
2022/01/12 05:25:18;;;;;;;8.23;3.57;;;5.00;99.90;;;;;;5012110;28;20545;-70
2022/01/12 05:27:46;;;;;;;3.00;2.20;;;4.80;99.90;;;;;;5013806;28;20638;-71
2022/01/12 05:30:14;;;;;;;11.00;3.07;;;4.90;99.90;;;;;;5003815;28;21019;-71
2022/01/12 05:32:43;;;;;;;3.60;1.90;;;4.80;99.90;;;;;;5010760;28;20885;-71
2022/01/12 05:35:12;;;;;;;3.87;2.37;;;4.80;99.90;;;;;;5028404;28;20813;-70
2022/01/12 05:37:41;;;;;;;2.67;2.30;;;4.80;99.90;;;;;;5021125;28;20426;-69
2022/01/12 05:40:09;;;;;;;7.50;2.90;;;4.80;99.90;;;;;;5026069;28;20459;-70
2022/01/12 05:42:36;;;;;;;3.33;2.60;;;5.00;99.90;;;;;;5024989;28;20508;-69
2022/01/12 05:45:04;;;;;;;3.70;2.77;;;5.00;99.90;;;;;;5020631;28;20426;-70
2022/01/12 05:49:33;;;;;;;4.13;3.63;;;5.10;99.90;;;;;;5018393;28;20990;-71
2022/01/12 05:50:24;;;;;;;7.70;4.37;;;5.10;99.90;;;;;;5026124;28;21039;-71
2022/01/12 05:52:52;;;;;;;5.67;2.70;;;5.00;99.90;;;;;;5011745;28;20498;-72
2022/01/12 05:55:20;;;;;;;5.03;4.00;;;5.00;99.90;;;;;;5026864;28;20431;-72
2022/01/12 05:57:48;;;;;;;4.50;2.57;;;5.00;99.90;;;;;;5033746;28;20451;-71
2022/01/12 06:00:18;;;;;;;3.77;2.50;;;5.10;99.90;;;;;;5035052;28;20542;-72
2022/01/12 06:02:45;;;;;;;7.87;3.30;;;5.10;99.90;;;;;;5026413;28;20524;-72
2022/01/12 06:05:14;;;;;;;2.90;2.30;;;5.00;99.90;;;;;;5036638;28;20434;-74
2022/01/12 06:07:41;;;;;;;10.13;2.80;;;4.90;99.90;;;;;;5035011;28;20454;-74
2022/01/12 06:10:10;;;;;;;3.53;3.17;;;4.80;99.90;;;;;;5032744;28;20491;-71
2022/01/12 06:12:38;;;;;;;2.90;2.40;;;4.80;99.90;;;;;;5033164;28;20450;-71
2022/01/12 06:15:06;;;;;;;11.43;3.60;;;4.90;99.90;;;;;;5039028;28;20898;-69
2022/01/12 06:17:33;;;;;;;3.73;3.10;;;5.00;99.90;;;;;;5031867;28;20450;-70
2022/01/12 06:20:01;;;;;;;6.30;5.30;;;5.00;99.90;;;;;;5031607;28;20538;-70
2022/01/12 06:22:28;;;;;;;7.17;3.60;;;5.00;99.90;;;;;;5026453;28;20506;-72
2022/01/12 06:24:57;;;;;;;5.87;3.93;;;5.00;99.90;;;;;;5034788;28;20468;-70
2022/01/12 06:27:30;;;;;;;8.90;3.63;;;5.00;99.90;;;;;;5027985;28;20486;-70
2022/01/12 06:31:09;;;;;;;6.23;4.30;;;4.90;99.90;;;;;;5028794;28;20957;-71
2022/01/12 06:32:51;;;;;;;6.97;3.40;;;5.00;99.90;;;;;;5036947;28;20454;-71
2022/01/12 06:35:18;;;;;;;5.77;3.73;;;5.00;99.90;;;;;;5036019;28;20475;-71
2022/01/12 06:37:45;;;;;;;9.00;3.53;;;5.00;99.90;;;;;;5033424;28;20488;-71
2022/01/12 06:40:14;;;;;;;4.70;3.10;;;5.00;99.90;;;;;;5030792;28;21017;-71
2022/01/12 06:42:43;;;;;;;4.53;3.20;;;5.00;99.90;;;;;;5030152;28;20545;-74
2022/01/12 06:45:11;;;;;;;7.47;3.70;;;5.20;99.90;;;;;;5029277;28;20440;-73
2022/01/12 06:47:38;;;;;;;4.13;3.00;;;5.20;99.90;;;;;;5029603;28;20544;-68
2022/01/12 06:50:07;;;;;;;3.37;1.97;;;5.20;99.90;;;;;;5031462;28;20465;-68
2022/01/12 06:52:34;;;;;;;5.23;3.50;;;5.20;99.90;;;;;;5029304;28;20550;-71
2022/01/12 06:55:02;;;;;;;5.10;3.40;;;5.10;99.90;;;;;;5026530;28;20850;-73
2022/01/12 06:57:31;;;;;;;8.73;2.87;;;5.10;99.90;;;;;;5030854;28;20503;-71
2022/01/12 06:59:59;;;;;;;3.33;2.80;;;5.10;99.90;;;;;;5033512;28;21076;-70
2022/01/12 07:02:26;;;;;;;6.53;4.00;;;5.00;99.90;;;;;;5035575;28;20757;-71
2022/01/12 07:04:53;;;;;;;4.03;2.90;;;5.00;99.90;;;;;;5030469;28;21735;-70
2022/01/12 07:07:20;;;;;;;10.67;4.87;;;5.00;99.90;;;;;;5033504;28;20921;-71
2022/01/12 07:09:47;;;;;;;19.87;3.80;;;4.90;99.90;;;;;;5029395;28;21012;-69
2022/01/12 07:12:16;;;;;;;7.20;4.70;;;4.90;99.90;;;;;;5033506;28;20462;-69
2022/01/12 07:14:43;;;;;;;13.03;4.27;;;4.90;99.90;;;;;;5032636;28;20545;-71
2022/01/12 07:17:13;;;;;;;12.13;6.27;;;4.80;99.90;;;;;;5034457;28;20534;-72
2022/01/12 07:19:40;;;;;;;3.73;3.10;;;4.60;99.90;;;;;;5032611;28;21085;-71
2022/01/12 07:22:07;;;;;;;6.63;4.67;;;4.60;99.90;;;;;;5025096;28;20487;-70
2022/01/12 07:24:35;;;;;;;5.00;3.60;;;4.70;99.90;;;;;;5027133;28;20522;-72
2022/01/12 07:27:02;;;;;;;6.50;3.03;;;4.70;99.90;;;;;;5032095;28;20555;-69
2022/01/12 07:29:29;;;;;;;9.00;4.43;;;4.80;99.90;;;;;;5034735;28;20522;-72
2022/01/12 07:31:56;;;;;;;5.40;3.20;;;4.70;99.90;;;;;;5032224;28;20485;-69
2022/01/12 07:34:25;;;;;;;5.50;4.23;;;4.90;99.90;;;;;;5031099;28;20945;-70
2022/01/12 07:36:52;;;;;;;4.87;4.20;;;4.80;99.90;;;;;;5034756;28;20464;-70
2022/01/12 07:39:19;;;;;;;5.70;4.20;;;4.80;99.90;;;;;;5029753;28;20462;-70
2022/01/12 07:41:46;;;;;;;8.60;4.70;;;4.80;99.90;;;;;;5027836;28;20538;-69
2022/01/12 07:44:13;;;;;;;8.60;4.37;;;4.80;99.90;;;;;;5035053;28;21259;-70
2022/01/12 07:46:40;;;;;;;11.37;4.40;;;4.70;99.90;;;;;;5035242;28;21967;-70
2022/01/12 07:49:07;;;;;;;11.90;4.63;;;4.70;99.90;;;;;;5034737;28;20993;-69
2022/01/12 07:51:36;;;;;;;5.33;4.23;;;4.70;99.90;;;;;;5026463;28;20545;-71
2022/01/12 07:54:03;;;;;;;12.40;4.47;;;4.70;99.90;;;;;;5024440;28;20509;-70
2022/01/12 07:56:30;;;;;;;14.00;5.00;;;4.70;99.90;;;;;;5027104;28;20519;-69
2022/01/12 07:58:57;;;;;;;5.20;4.13;;;4.70;99.90;;;;;;5029295;28;20468;-71
2022/01/12 08:01:24;;;;;;;5.33;3.77;;;4.70;99.90;;;;;;5025212;28;20983;-70
2022/01/12 08:03:51;;;;;;;9.57;4.00;;;4.60;99.90;;;;;;5026132;28;20473;-70
2022/01/12 08:06:18;;;;;;;5.20;3.63;;;4.70;99.90;;;;;;5019402;28;20437;-68
2022/01/12 08:08:47;;;;;;;10.50;6.17;;;4.60;99.90;;;;;;5027881;28;20554;-72
2022/01/12 08:11:14;;;;;;;7.07;4.57;;;4.70;99.90;;;;;;5021226;28;20478;-70
2022/01/12 08:13:42;;;;;;;6.63;4.70;;;4.70;99.90;;;;;;5027059;28;21924;-69
2022/01/12 08:16:09;;;;;;;6.20;3.03;;;4.70;99.90;;;;;;5025202;28;20426;-70
2022/01/12 08:18:36;;;;;;;11.17;5.03;;;4.80;99.90;;;;;;5032470;28;20466;-71
2022/01/12 08:21:06;;;;;;;10.67;5.07;;;4.80;99.90;;;;;;5029585;28;20742;-73
2022/01/12 08:23:33;;;;;;;12.80;6.23;;;4.70;99.90;;;;;;5024487;28;20541;-72
2022/01/12 08:26:02;;;;;;;6.43;3.97;;;4.70;99.90;;;;;;5023551;28;20469;-70
2022/01/12 08:28:29;;;;;;;8.40;4.33;;;4.70;99.90;;;;;;5033327;28;20533;-72
2022/01/12 08:30:56;;;;;;;6.53;5.00;;;4.90;99.90;;;;;;5029104;28;20457;-71
2022/01/12 08:33:23;;;;;;;5.20;4.73;;;4.90;99.90;;;;;;5022836;28;20442;-71
2022/01/12 08:35:50;;;;;;;14.23;4.00;;;4.90;99.90;;;;;;5029380;28;20472;-72
2022/01/12 08:38:17;;;;;;;7.17;3.80;;;4.80;99.90;;;;;;5029057;28;20929;-71
2022/01/12 08:40:44;;;;;;;11.10;5.60;;;4.70;99.90;;;;;;5030185;28;20517;-70
2022/01/12 08:43:13;;;;;;;12.10;7.57;;;4.70;99.90;;;;;;5028640;28;20442;-70
2022/01/12 08:45:41;;;;;;;11.00;5.10;;;4.70;99.90;;;;;;5035299;28;20429;-73
2022/01/12 08:48:08;;;;;;;7.27;5.10;;;4.70;99.90;;;;;;5034107;28;20910;-73
2022/01/12 08:50:34;;;;;;;12.77;6.10;;;4.70;99.90;;;;;;5027095;28;24552;-70
2022/01/12 08:53:01;;;;;;;12.53;4.83;;;4.60;99.90;;;;;;5028996;28;20435;-71
2022/01/12 08:55:28;;;;;;;6.47;4.60;;;4.50;99.90;;;;;;5033318;28;20435;-72
2022/01/12 08:57:58;;;;;;;22.63;5.53;;;4.40;99.90;;;;;;5025986;28;20848;-70
2022/01/12 09:00:27;;;;;;;8.93;5.53;;;4.60;99.90;;;;;;5030163;28;20848;-73
2022/01/12 09:02:55;;;;;;;6.33;3.90;;;4.70;99.90;;;;;;5030032;28;20478;-70
2022/01/12 09:05:22;;;;;;;22.90;5.90;;;4.60;99.90;;;;;;5033938;28;20519;-71
2022/01/12 09:07:49;;;;;;;11.43;5.37;;;4.40;99.90;;;;;;5037930;28;20450;-71
2022/01/12 09:10:17;;;;;;;16.67;5.37;;;4.60;99.90;;;;;;5025837;28;20445;-72
2022/01/12 09:12:44;;;;;;;7.53;5.47;;;4.50;99.90;;;;;;5025683;28;20454;-71
2022/01/12 09:15:13;;;;;;;6.10;4.43;;;4.50;99.90;;;;;;5031201;28;20916;-71
2022/01/12 09:17:42;;;;;;;10.93;5.10;;;4.50;99.90;;;;;;5034722;28;20906;-71
2022/01/12 09:20:11;;;;;;;7.23;4.50;;;4.40;99.90;;;;;;5036359;28;20521;-70
2022/01/12 09:22:38;;;;;;;7.13;3.97;;;4.50;99.90;;;;;;5031975;28;20491;-72
2022/01/12 09:25:06;;;;;;;5.93;4.27;;;4.60;99.90;;;;;;5021434;28;20946;-70
2022/01/12 09:27:33;;;;;;;12.37;5.83;;;4.50;99.90;;;;;;5022610;28;20458;-71
2022/01/12 09:30:01;;;;;;;10.93;6.90;;;4.50;99.90;;;;;;5031766;28;20533;-72
2022/01/12 09:32:28;;;;;;;8.33;5.80;;;4.30;99.90;;;;;;5031514;28;20505;-70
2022/01/12 09:34:56;;;;;;;9.60;5.27;;;4.40;99.90;;;;;;5038638;28;20445;-73
2022/01/12 09:37:23;;;;;;;11.20;4.57;;;4.50;99.90;;;;;;5027266;28;20840;-72
2022/01/12 09:39:50;;;;;;;10.00;5.70;;;4.70;99.90;;;;;;5033442;28;20460;-68
2022/01/12 09:42:17;;;;;;;10.20;5.50;;;4.70;99.90;;;;;;5023767;28;20745;-69
2022/01/12 09:44:46;;;;;;;9.47;5.00;;;4.70;99.90;;;;;;5016828;28;21019;-71
2022/01/12 09:47:13;;;;;;;10.67;5.23;;;4.80;99.90;;;;;;5024528;28;20536;-71
2022/01/12 09:49:42;;;;;;;12.63;7.60;;;4.80;99.90;;;;;;5029281;28;20467;-71
2022/01/12 09:52:11;;;;;;;8.90;6.20;;;4.90;99.90;;;;;;5032885;22;20485;-69
2022/01/12 09:54:39;;;;;;;11.77;5.30;;;4.80;99.90;;;;;;5018379;28;20618;-70
2022/01/12 09:57:07;;;;;;;7.73;4.13;;;4.90;99.90;;;;;;5049378;28;20506;-70
2022/01/12 09:59:35;;;;;;;10.07;6.00;;;5.00;99.90;;;;;;5034009;28;20488;-70
2022/01/12 10:02:03;;;;;;;12.80;7.40;;;5.10;99.90;;;;;;5029508;28;20451;-69
2022/01/12 10:04:34;;;;;;;24.23;8.30;;;5.00;99.90;;;;;;5023053;28;20630;-68
2022/01/12 10:07:03;;;;;;;7.67;6.20;;;5.00;99.90;;;;;;5030125;28;20968;-71
2022/01/12 10:09:37;;;;;;;12.60;7.80;;;5.00;99.90;;;;;;5028633;28;20459;-71
2022/01/12 10:12:10;;;;;;;10.50;6.60;;;5.00;99.90;;;;;;5027947;28;20779;-70
2022/01/12 10:14:45;;;;;;;24.23;9.40;;;5.00;99.90;;;;;;5019378;28;22175;-70
2022/01/12 10:17:13;;;;;;;14.53;7.50;;;4.90;99.90;;;;;;5020275;28;20844;-71
2022/01/12 10:19:41;;;;;;;16.93;6.70;;;4.90;99.90;;;;;;5031708;28;20529;-71
2022/01/12 10:22:11;;;;;;;11.20;6.23;;;5.00;99.90;;;;;;5028641;28;20458;-70
2022/01/12 10:24:41;;;;;;;16.73;6.40;;;5.10;99.90;;;;;;5027839;28;20434;-68
2022/01/12 10:27:16;;;;;;;15.83;5.73;;;5.00;99.90;;;;;;5022733;28;21030;-70
2022/01/12 10:29:45;;;;;;;17.80;8.60;;;5.00;99.90;;;;;;5022157;28;20492;-71
2022/01/12 10:32:16;;;;;;;12.97;7.60;;;5.00;99.90;;;;;;5025530;28;20490;-69
2022/01/12 10:34:45;;;;;;;14.30;7.07;;;5.00;99.90;;;;;;5021435;28;20470;-69
2022/01/12 10:37:14;;;;;;;18.13;6.43;;;5.00;99.90;;;;;;5031952;28;20572;-69
2022/01/12 10:39:45;;;;;;;8.03;6.63;;;5.10;99.90;;;;;;5032058;28;21032;-71
2022/01/12 10:42:13;;;;;;;14.40;6.60;;;5.10;99.90;;;;;;5031829;28;20499;-71
2022/01/12 10:44:42;;;;;;;12.77;7.10;;;5.00;99.90;;;;;;5023203;28;20571;-71
2022/01/12 10:47:13;;;;;;;17.53;9.07;;;5.10;99.90;;;;;;5029066;28;20512;-69
2022/01/12 10:49:43;;;;;;;23.43;8.60;;;5.10;99.90;;;;;;5033200;28;20922;-68
2022/01/12 10:52:12;;;;;;;37.73;12.53;;;5.10;99.90;;;;;;5026975;28;20557;-70
2022/01/12 10:54:46;;;;;;;24.17;8.97;;;5.20;99.90;;;;;;5027301;28;20437;-68
2022/01/12 10:57:22;;;;;;;11.13;6.93;;;5.20;99.90;;;;;;5023279;28;20467;-72
2022/01/12 11:00:22;;;;;;;20.80;7.53;;;5.10;99.90;;;;;;5021610;28;20454;-69
2022/01/12 11:02:51;;;;;;;13.63;7.97;;;5.20;99.90;;;;;;4991595;28;21011;-70
2022/01/12 11:05:20;;;;;;;16.50;7.87;;;5.20;99.90;;;;;;5025862;28;20434;-69
2022/01/12 11:07:48;;;;;;;27.60;10.27;;;5.00;99.90;;;;;;5031662;28;20513;-71
2022/01/12 11:10:18;;;;;;;28.47;8.77;;;5.00;99.90;;;;;;5030329;28;20578;-70
2022/01/12 11:12:45;;;;;;;29.70;9.37;;;5.20;99.90;;;;;;5024286;28;20473;-71
2022/01/12 11:15:14;;;;;;;23.13;11.13;;;5.10;99.90;;;;;;5027834;28;20439;-68
2022/01/12 11:17:43;;;;;;;19.73;11.00;;;5.10;99.90;;;;;;5025902;28;20490;-70
2022/01/12 11:20:16;;;;;;;18.17;10.47;;;5.20;99.90;;;;;;5028304;28;21097;-69
2022/01/12 11:22:54;;;;;;;19.30;8.73;;;5.30;99.90;;;;;;5024442;28;20443;-70
2022/01/12 11:25:25;;;;;;;28.53;9.17;;;5.30;99.90;;;;;;5031136;28;20530;-70
2022/01/12 11:28:08;;;;;;;26.93;10.83;;;5.30;99.90;;;;;;5022948;28;20482;-68
2022/01/12 11:30:36;;;;;;;30.10;10.87;;;5.30;99.90;;;;;;5032890;28;20520;-70
2022/01/12 11:33:05;;;;;;;21.53;8.23;;;5.30;99.90;;;;;;5025386;28;20595;-70
2022/01/12 11:35:36;;;;;;;24.30;10.73;;;5.20;99.90;;;;;;5027276;28;20491;-68
2022/01/12 11:38:04;;;;;;;34.33;9.53;;;5.20;99.90;;;;;;5028971;28;20507;-71
2022/01/12 11:40:41;;;;;;;18.67;8.70;;;5.00;99.90;;;;;;5026559;28;20817;-69
2022/01/12 11:43:18;;;;;;;26.73;9.90;;;5.00;99.90;;;;;;5025181;28;20480;-71
2022/01/12 11:45:46;;;;;;;18.40;9.60;;;4.80;99.90;;;;;;5028029;28;20550;-69
2022/01/12 11:48:13;;;;;;;20.13;9.57;;;4.90;99.90;;;;;;5025333;28;20516;-68
2022/01/12 11:50:40;;;;;;;25.67;11.00;;;4.90;99.90;;;;;;5023320;28;20572;-70
2022/01/12 11:53:07;;;;;;;48.83;11.07;;;5.00;99.90;;;;;;5022037;28;20446;-69
2022/01/12 11:55:38;;;;;;;16.50;10.13;;;5.10;99.90;;;;;;5025531;28;20953;-70
2022/01/12 11:58:17;;;;;;;28.83;11.53;;;5.30;99.90;;;;;;5027696;28;20890;-70
2022/01/12 12:00:44;;;;;;;24.87;10.57;;;5.30;99.90;;;;;;5030921;28;20588;-71
2022/01/12 12:03:15;;;;;;;20.47;7.40;;;5.50;99.90;;;;;;5024121;28;20430;-71
2022/01/12 12:05:43;;;;;;;25.03;11.00;;;5.30;99.90;;;;;;5030894;28;20434;-71
2022/01/12 12:08:10;;;;;;;33.43;10.27;;;5.20;99.90;;;;;;5030441;28;20486;-70
2022/01/12 12:10:41;;;;;;;19.00;9.50;;;5.30;99.90;;;;;;5020736;28;20458;-71
2022/01/12 12:13:11;;;;;;;24.17;12.53;;;5.50;99.90;;;;;;5018702;28;20791;-70
2022/01/12 12:15:38;;;;;;;22.87;11.47;;;5.50;99.90;;;;;;5030085;28;20434;-70
2022/01/12 12:18:06;;;;;;;18.47;9.57;;;5.50;99.90;;;;;;5031719;28;20434;-68
2022/01/12 12:20:37;;;;;;;22.70;12.17;;;5.50;99.90;;;;;;5034261;28;20522;-68
2022/01/12 12:23:04;;;;;;;14.70;9.20;;;5.60;99.90;;;;;;5025085;28;20433;-69
2022/01/12 12:25:33;;;;;;;20.00;10.53;;;5.40;99.90;;;;;;5009675;28;20465;-70
2022/01/12 12:28:02;;;;;;;19.00;10.30;;;5.40;99.90;;;;;;5025150;28;21075;-70
2022/01/12 12:30:33;;;;;;;18.67;9.10;;;5.40;99.90;;;;;;5025384;28;20442;-69
2022/01/12 12:33:06;;;;;;;31.60;11.80;;;5.30;99.90;;;;;;5023019;28;20580;-69
2022/01/12 12:35:34;;;;;;;21.20;8.57;;;5.30;99.90;;;;;;5028175;28;20518;-71
2022/01/12 12:38:04;;;;;;;21.60;8.10;;;5.30;99.90;;;;;;5028480;28;20480;-69
2022/01/12 12:40:34;;;;;;;24.37;10.43;;;5.20;99.90;;;;;;5025695;28;21565;-68
2022/01/12 12:43:05;;;;;;;26.30;10.10;;;5.10;99.90;;;;;;5027374;28;20445;-69
2022/01/12 12:45:43;;;;;;;20.30;11.40;;;5.30;99.90;;;;;;5029609;28;20780;-69
2022/01/12 12:48:14;;;;;;;19.30;10.57;;;5.50;99.90;;;;;;5032015;28;20572;-69
2022/01/12 12:50:42;;;;;;;15.57;9.23;;;5.50;99.90;;;;;;5031328;28;20548;-69
2022/01/12 12:53:09;;;;;;;27.23;10.43;;;5.50;99.90;;;;;;5030756;28;20442;-69
2022/01/12 12:55:37;;;;;;;23.60;9.80;;;5.50;99.90;;;;;;5025931;28;20438;-69
2022/01/12 12:58:06;;;;;;;27.23;10.33;;;5.60;99.90;;;;;;5029008;28;20425;-68
2022/01/12 13:00:34;;;;;;;25.27;9.80;;;5.70;99.90;;;;;;5019492;28;20494;-68
2022/01/12 13:03:04;;;;;;;17.37;8.70;;;5.80;99.90;;;;;;5026918;28;20550;-69
2022/01/12 13:05:34;;;;;;;23.33;11.63;;;5.70;99.90;;;;;;5026407;28;20770;-68
2022/01/12 13:08:01;;;;;;;33.10;10.83;;;5.70;99.90;;;;;;5023965;28;20980;-70
2022/01/12 13:10:33;;;;;;;23.87;11.47;;;5.40;99.90;;;;;;5023745;28;20502;-68
2022/01/12 13:13:02;;;;;;;25.77;11.33;;;5.20;99.90;;;;;;5027122;28;20901;-68
2022/01/12 13:15:32;;;;;;;27.00;8.43;;;5.30;99.90;;;;;;5027027;28;20454;-68
2022/01/12 13:18:04;;;;;;;16.87;9.67;;;5.40;99.90;;;;;;5035155;28;20534;-68
2022/01/12 13:23:19;;;;;;;23.27;9.03;;;5.60;99.90;;;;;;5026472;28;20437;-70
2022/01/12 13:25:45;;;;;;;35.03;9.80;;;5.70;99.90;;;;;;5023561;28;20455;-69
2022/01/12 13:28:13;;;;;;;27.80;10.50;;;5.70;99.90;;;;;;5027604;28;20569;-67
2022/01/12 13:30:50;;;;;;;20.67;8.57;;;5.70;99.90;;;;;;5035079;28;20553;-69
2022/01/12 13:33:27;;;;;;;19.30;11.73;;;5.70;99.90;;;;;;5022103;28;20433;-68
2022/01/12 13:35:54;;;;;;;30.80;11.20;;;5.70;99.90;;;;;;5024155;28;20423;-70
2022/01/12 13:38:27;;;;;;;24.80;11.63;;;5.50;99.90;;;;;;5027638;28;20462;-70
2022/01/12 13:40:55;;;;;;;41.47;12.13;;;5.60;99.90;;;;;;5036458;28;20568;-69
2022/01/12 13:43:23;;;;;;;43.50;12.93;;;5.50;99.90;;;;;;5031648;28;20433;-69
2022/01/12 13:46:00;;;;;;;28.63;10.57;;;5.50;99.90;;;;;;5032455;28;20448;-69
2022/01/12 13:48:32;;;;;;;35.57;12.50;;;5.40;99.90;;;;;;5031714;28;20460;-69
2022/01/12 13:51:03;;;;;;;33.13;9.17;;;5.40;99.90;;;;;;5028499;28;20556;-69
2022/01/12 13:53:38;;;;;;;37.30;11.50;;;5.50;99.90;;;;;;5024790;28;20463;-70
2022/01/12 13:56:07;;;;;;;20.50;9.53;;;5.40;99.90;;;;;;5024443;28;20526;-68
2022/01/12 13:58:36;;;;;;;25.17;9.73;;;5.40;99.90;;;;;;5027624;28;20462;-70
2022/01/12 14:01:07;;;;;;;14.63;7.33;;;5.40;99.90;;;;;;5034574;28;21003;-70
2022/01/12 14:03:43;;;;;;;18.10;8.43;;;5.30;99.90;;;;;;5021106;28;20444;-67